Time;durP1;ratioP1;P1;durP2;ratioP2;P2;SDS_P1;SDS_P2;PMS_P1;PMS_P2;Temp;Humidity;BMP_temperature;BMP_pressure;BME280_temperature;BME280_humidity;BME280_pressure;Samples;Min_cycle;Max_cycle;Signal;HPM_P1;HPM_P2
2021/12/16 00:02:01;;;;;;;2.20;1.17;;;;;;;;;;5111161;28;20408;-79
2021/12/16 00:05:15;;;;;;;3.60;1.23;;;;;;;;;;5111834;28;20465;-79
2021/12/16 00:07:36;;;;;;;3.37;1.00;;;;;;;;;;5100355;28;20979;-79
2021/12/16 00:10:22;;;;;;;3.27;1.50;;;;;;;;;;5087033;28;20424;-79
2021/12/16 00:34:02;;;;;;;1.80;1.00;;;;;;;;;;5094667;28;20558;-79
2021/12/16 00:36:30;;;;;;;8.57;1.27;;;;;;;;;;5094429;28;20958;-80
2021/12/16 00:38:56;;;;;;;2.07;1.30;;;;;;;;;;5096093;28;20406;-80
2021/12/16 00:41:22;;;;;;;2.10;1.40;;;;;;;;;;5076206;28;20921;-80
2021/12/16 00:43:58;;;;;;;2.30;1.30;;;;;;;;;;5076747;28;20453;-80
2021/12/16 00:54:35;;;;;;;2.33;1.47;;;;;;;;;;5095320;28;20428;-80
2021/12/16 00:57:07;;;;;;;2.93;1.80;;;;;;;;;;5095322;28;20896;-79
2021/12/16 00:59:37;;;;;;;11.43;1.60;;;;;;;;;;5095862;28;20417;-79
2021/12/16 01:07:37;;;;;;;2.67;1.70;;;;;;;;;;5095359;28;20406;-79
2021/12/16 01:35:16;;;;;;;2.63;1.63;;;;;;;;;;5098532;28;20420;-79
2021/12/16 01:45:42;;;;;;;2.60;1.77;;;;;;;;;;5097939;28;20426;-79
2021/12/16 01:49:01;;;;;;;2.90;1.53;;;;;;;;;;5080022;28;20783;-79
2021/12/16 01:51:17;;;;;;;2.67;1.57;;;;;;;;;;5097262;28;20432;-79
2021/12/16 01:54:28;;;;;;;2.70;1.40;;;;;;;;;;5079858;28;20408;-79
2021/12/16 01:56:55;;;;;;;2.17;1.57;;;;;;;;;;5096449;28;20409;-79
2021/12/16 01:59:24;;;;;;;2.50;1.60;;;;;;;;;;5097016;28;20896;-79
2021/12/16 02:01:53;;;;;;;2.57;1.50;;;;;;;;;;5096737;28;20417;-79
2021/12/16 02:04:27;;;;;;;2.20;1.27;;;;;;;;;;5096728;28;20502;-79
2021/12/16 02:07:26;;;;;;;3.10;1.60;;;;;;;;;;5097849;28;20937;-79
2021/12/16 02:09:56;;;;;;;3.13;1.43;;;;;;;;;;5097395;28;20456;-79
2021/12/16 02:12:55;;;;;;;2.13;1.43;;;;;;;;;;5098134;28;20946;-81
2021/12/16 02:29:26;;;;;;;3.80;1.60;;;;;;;;;;5097207;28;20482;-79
2021/12/16 02:32:00;;;;;;;2.13;1.43;;;;;;;;;;5097804;28;20819;-79
2021/12/16 02:37:17;;;;;;;2.10;1.50;;;;;;;;;;5098309;28;20819;-79
2021/12/16 02:39:45;;;;;;;3.13;2.07;;;;;;;;;;5097755;28;20394;-79
2021/12/16 02:42:16;;;;;;;3.33;2.00;;;;;;;;;;5097736;28;20425;-79
2021/12/16 02:50:13;;;;;;;2.73;1.90;;;;;;;;;;5097100;28;20493;-79
2021/12/16 02:52:39;;;;;;;2.27;1.43;;;;;;;;;;5096920;28;20422;-79
2021/12/16 02:55:06;;;;;;;1.87;1.37;;;;;;;;;;5079033;28;20437;-79
2021/12/16 02:57:38;;;;;;;2.50;1.63;;;;;;;;;;5096799;28;20446;-79
2021/12/16 03:00:06;;;;;;;2.00;1.50;;;;;;;;;;5078404;28;20649;-79
2021/12/16 03:02:32;;;;;;;2.50;1.60;;;;;;;;;;5097198;28;20402;-79
2021/12/16 03:04:58;;;;;;;3.43;1.47;;;;;;;;;;5096123;28;20515;-79
2021/12/16 03:07:25;;;;;;;2.97;1.80;;;;;;;;;;5097208;28;20394;-79
2021/12/16 03:12:57;;;;;;;2.23;1.40;;;;;;;;;;5096746;28;20397;-79
2021/12/16 03:18:02;;;;;;;3.07;1.67;;;;;;;;;;5096789;28;20912;-79
2021/12/16 03:20:40;;;;;;;3.60;1.60;;;;;;;;;;5095800;28;20398;-79
2021/12/16 03:23:35;;;;;;;3.13;1.77;;;;;;;;;;5093486;28;20461;-79
2021/12/16 03:26:43;;;;;;;3.63;1.90;;;;;;;;;;5093368;28;20422;-79
2021/12/16 03:34:19;;;;;;;2.90;2.07;;;;;;;;;;5096353;28;20805;-79
2021/12/16 03:39:38;;;;;;;2.43;1.50;;;;;;;;;;5097878;28;20928;-80
2021/12/16 03:42:05;;;;;;;3.80;2.10;;;;;;;;;;5098008;28;20818;-81
2021/12/16 03:44:48;;;;;;;3.10;2.20;;;;;;;;;;5096774;28;20515;-80
2021/12/16 03:47:15;;;;;;;4.93;1.40;;;;;;;;;;5096339;28;20903;-79
2021/12/16 03:49:41;;;;;;;2.90;2.00;;;;;;;;;;5097084;28;20890;-80
2021/12/16 03:52:09;;;;;;;3.77;2.20;;;;;;;;;;5096313;28;20485;-79
2021/12/16 03:54:38;;;;;;;6.87;2.30;;;;;;;;;;5078031;28;20517;-80
2021/12/16 03:57:07;;;;;;;3.10;1.77;;;;;;;;;;5096673;28;20405;-80
2021/12/16 03:59:34;;;;;;;2.57;1.40;;;;;;;;;;5095700;28;20428;-79
2021/12/16 04:02:02;;;;;;;3.00;1.80;;;;;;;;;;5096125;28;20417;-79
2021/12/16 04:04:28;;;;;;;4.43;2.10;;;;;;;;;;5077627;28;20461;-79
2021/12/16 04:06:55;;;;;;;2.30;1.40;;;;;;;;;;5078006;28;20406;-79
2021/12/16 04:09:21;;;;;;;2.30;1.33;;;;;;;;;;5096368;28;20409;-79
2021/12/16 04:11:56;;;;;;;2.50;1.37;;;;;;;;;;5077586;28;20488;-79
2021/12/16 04:14:22;;;;;;;2.37;1.60;;;;;;;;;;5077924;28;21012;-79
2021/12/16 04:16:53;;;;;;;3.37;1.70;;;;;;;;;;5077983;28;20808;-79
2021/12/16 04:19:23;;;;;;;2.40;1.57;;;;;;;;;;5096297;28;20424;-80
2021/12/16 04:21:52;;;;;;;3.20;2.03;;;;;;;;;;5076105;28;20414;-80
2021/12/16 04:24:18;;;;;;;3.20;1.73;;;;;;;;;;5095232;28;20465;-80
2021/12/16 04:26:45;;;;;;;2.20;1.57;;;;;;;;;;5094653;28;20413;-80
2021/12/16 04:29:11;;;;;;;3.20;1.60;;;;;;;;;;5093957;28;20475;-80
2021/12/16 04:31:38;;;;;;;2.33;1.47;;;;;;;;;;5093596;28;20402;-80
2021/12/16 04:34:05;;;;;;;3.23;1.90;;;;;;;;;;5091490;28;20500;-80
2021/12/16 04:36:32;;;;;;;2.33;1.10;;;;;;;;;;5091615;28;20409;-80
2021/12/16 04:38:58;;;;;;;5.00;1.70;;;;;;;;;;5091656;28;20406;-80
2021/12/16 04:41:27;;;;;;;7.23;1.93;;;;;;;;;;5091320;28;20406;-80
2021/12/16 04:43:55;;;;;;;3.07;1.77;;;;;;;;;;5095127;28;20457;-80
2021/12/16 04:46:24;;;;;;;2.63;1.50;;;;;;;;;;5095444;28;20437;-80
2021/12/16 04:48:52;;;;;;;2.90;1.77;;;;;;;;;;5095355;28;20433;-80
2021/12/16 04:51:19;;;;;;;3.63;2.07;;;;;;;;;;5095021;28;20397;-80
2021/12/16 04:53:46;;;;;;;3.10;1.90;;;;;;;;;;5095444;28;20405;-80
2021/12/16 04:56:13;;;;;;;2.83;1.50;;;;;;;;;;5077238;28;20467;-80
2021/12/16 04:58:41;;;;;;;2.37;1.87;;;;;;;;;;5095521;28;20433;-80
2021/12/16 05:01:07;;;;;;;2.37;1.30;;;;;;;;;;5095167;28;20413;-80
2021/12/16 05:03:33;;;;;;;2.00;1.53;;;;;;;;;;5095458;28;20454;-80
2021/12/16 05:05:59;;;;;;;2.77;1.87;;;;;;;;;;5077151;28;20425;-80
2021/12/16 05:08:26;;;;;;;4.30;2.50;;;;;;;;;;5095393;28;20813;-80
2021/12/16 05:10:55;;;;;;;2.70;1.93;;;;;;;;;;5095136;28;20406;-80
2021/12/16 05:13:24;;;;;;;3.00;1.70;;;;;;;;;;5077057;28;20440;-80
2021/12/16 05:15:51;;;;;;;3.93;2.17;;;;;;;;;;5095862;28;20766;-80
2021/12/16 05:18:25;;;;;;;3.10;1.87;;;;;;;;;;5095476;28;20410;-80
2021/12/16 05:20:52;;;;;;;3.17;2.00;;;;;;;;;;5077212;28;20434;-80
2021/12/16 05:28:40;;;;;;;4.60;2.07;;;;;;;;;;5096694;28;20827;-80
2021/12/16 05:31:06;;;;;;;5.33;2.33;;;;;;;;;;5106112;28;20478;-80
2021/12/16 05:33:32;;;;;;;3.67;2.73;;;;;;;;;;5114862;28;20417;-80
2021/12/16 05:35:58;;;;;;;2.63;1.80;;;;;;;;;;5098668;28;20425;-80
2021/12/16 05:38:25;;;;;;;2.33;1.50;;;;;;;;;;5117229;28;20465;-80
2021/12/16 05:40:52;;;;;;;3.10;1.57;;;;;;;;;;5116777;28;20427;-80
2021/12/16 05:43:21;;;;;;;1.67;1.23;;;;;;;;;;5114720;28;20448;-79
2021/12/16 05:45:47;;;;;;;5.33;1.63;;;;;;;;;;5116548;28;20999;-79
2021/12/16 05:48:15;;;;;;;3.70;1.93;;;;;;;;;;5116739;28;20405;-80
2021/12/16 05:50:43;;;;;;;3.03;1.80;;;;;;;;;;5115042;28;20416;-80
2021/12/16 05:53:09;;;;;;;5.50;2.83;;;;;;;;;;5116183;28;20436;-80
2021/12/16 05:55:35;;;;;;;2.83;1.67;;;;;;;;;;5115558;28;20463;-80
2021/12/16 05:58:04;;;;;;;2.47;1.60;;;;;;;;;;5116593;28;20478;-80
2021/12/16 06:00:33;;;;;;;6.00;3.13;;;;;;;;;;5115111;28;20413;-79
2021/12/16 06:02:59;;;;;;;10.60;4.20;;;;;;;;;;5116450;28;20402;-80
2021/12/16 06:05:25;;;;;;;9.90;5.57;;;;;;;;;;5115315;28;20440;-80
2021/12/16 06:07:52;;;;;;;11.00;6.83;;;;;;;;;;5097963;28;20923;-80
2021/12/16 06:13:08;;;;;;;9.53;4.10;;;;;;;;;;5049898;28;20428;-79
2021/12/16 06:22:18;;;;;;;10.83;5.40;;;;;;;;;;5112540;28;20444;-79
2021/12/16 06:29:30;;;;;;;10.40;5.87;;;;;;;;;;5094383;28;20405;-79
2021/12/16 06:31:56;;;;;;;7.57;3.20;;;;;;;;;;5115705;28;20397;-79
2021/12/16 06:34:23;;;;;;;21.97;8.93;;;;;;;;;;5093948;28;21237;-82
2021/12/16 06:36:50;;;;;;;19.50;10.00;;;;;;;;;;5095628;28;20449;-82
2021/12/16 06:39:16;;;;;;;10.67;6.27;;;;;;;;;;5087158;28;20417;-78
2021/12/16 06:41:42;;;;;;;17.30;8.90;;;;;;;;;;5095098;28;20411;-79
2021/12/16 06:44:18;;;;;;;13.27;6.77;;;;;;;;;;5095026;28;20460;-79
2021/12/16 06:46:46;;;;;;;16.50;9.83;;;;;;;;;;5077670;28;20911;-79
2021/12/16 06:49:15;;;;;;;7.90;4.70;;;;;;;;;;5095923;28;20481;-79
2021/12/16 06:51:51;;;;;;;15.47;8.53;;;;;;;;;;5074587;28;20417;-78
2021/12/16 06:59:41;;;;;;;11.30;5.17;;;;;;;;;;5094005;28;20410;-79
2021/12/16 07:02:17;;;;;;;7.40;4.17;;;;;;;;;;5096483;28;20762;-79
2021/12/16 07:04:45;;;;;;;7.37;4.13;;;;;;;;;;5092843;28;20528;-79
2021/12/16 07:07:12;;;;;;;13.60;8.00;;;;;;;;;;5096657;28;20407;-79
2021/12/16 07:09:38;;;;;;;5.07;3.47;;;;;;;;;;5089493;28;20402;-79
2021/12/16 07:12:05;;;;;;;11.07;5.87;;;;;;;;;;5096657;28;20482;-78
2021/12/16 07:14:40;;;;;;;14.00;4.97;;;;;;;;;;5091955;28;20572;-78
2021/12/16 07:17:14;;;;;;;16.03;6.87;;;;;;;;;;5092617;28;20453;-78
2021/12/16 07:19:41;;;;;;;14.17;6.37;;;;;;;;;;5092212;28;20401;-78
2021/12/16 07:22:07;;;;;;;9.17;4.57;;;;;;;;;;5093970;28;21014;-79
2021/12/16 07:24:33;;;;;;;9.63;4.07;;;;;;;;;;5093947;28;20473;-80
2021/12/16 07:26:59;;;;;;;6.57;3.60;;;;;;;;;;5094157;28;20402;-80
2021/12/16 07:29:27;;;;;;;15.70;7.63;;;;;;;;;;5075344;28;20813;-80
2021/12/16 07:31:53;;;;;;;10.37;3.67;;;;;;;;;;5094104;28;20406;-80
2021/12/16 07:34:19;;;;;;;6.23;3.73;;;;;;;;;;5093590;28;20429;-80
2021/12/16 07:36:45;;;;;;;5.93;2.90;;;;;;;;;;5094343;28;20394;-81
2021/12/16 07:39:13;;;;;;;6.93;2.80;;;;;;;;;;5094153;28;20424;-80
2021/12/16 07:41:41;;;;;;;9.93;3.63;;;;;;;;;;5094103;28;20420;-79
2021/12/16 07:44:10;;;;;;;4.20;2.50;;;;;;;;;;5094255;28;20840;-79
2021/12/16 07:46:36;;;;;;;6.73;3.00;;;;;;;;;;5114324;28;20440;-80
2021/12/16 07:49:03;;;;;;;6.10;3.00;;;;;;;;;;5115617;28;20389;-80
2021/12/16 07:51:29;;;;;;;8.50;3.23;;;;;;;;;;5113414;28;20404;-81
2021/12/16 07:53:55;;;;;;;6.47;3.53;;;;;;;;;;5113307;28;20433;-81
2021/12/16 07:56:21;;;;;;;3.90;2.70;;;;;;;;;;5095640;28;20439;-80
2021/12/16 07:58:47;;;;;;;5.40;3.40;;;;;;;;;;5095136;28;20448;-80
2021/12/16 08:01:14;;;;;;;5.63;2.93;;;;;;;;;;5113757;28;20891;-81
2021/12/16 08:03:41;;;;;;;6.87;2.90;;;;;;;;;;5095973;28;20551;-81
2021/12/16 08:06:10;;;;;;;4.10;2.43;;;;;;;;;;5114570;28;20405;-81
2021/12/16 08:08:36;;;;;;;5.77;3.20;;;;;;;;;;5114700;28;20900;-81
2021/12/16 08:11:04;;;;;;;4.83;2.50;;;;;;;;;;5096737;28;20397;-81
2021/12/16 08:13:30;;;;;;;3.27;2.20;;;;;;;;;;5114319;28;20405;-81
2021/12/16 08:15:56;;;;;;;7.10;2.20;;;;;;;;;;5113668;28;20440;-80
2021/12/16 08:18:22;;;;;;;3.80;2.07;;;;;;;;;;5114759;28;20405;-81
2021/12/16 08:20:48;;;;;;;4.00;2.20;;;;;;;;;;5096151;28;20444;-84
2021/12/16 08:23:14;;;;;;;6.90;2.33;;;;;;;;;;5096044;28;20912;-82
2021/12/16 08:25:41;;;;;;;3.13;2.10;;;;;;;;;;5096270;28;20430;-82
2021/12/16 08:28:07;;;;;;;3.80;2.33;;;;;;;;;;5097028;28;20912;-82
2021/12/16 08:30:35;;;;;;;7.50;2.37;;;;;;;;;;5096848;28;20814;-82
2021/12/16 08:33:05;;;;;;;5.70;2.40;;;;;;;;;;5097732;28;20423;-82
2021/12/16 08:35:32;;;;;;;3.67;2.00;;;;;;;;;;5116344;28;20500;-82
2021/12/16 08:37:58;;;;;;;3.60;1.87;;;;;;;;;;5098327;28;20787;-82
2021/12/16 08:40:25;;;;;;;4.87;2.37;;;;;;;;;;5115530;28;20400;-82
2021/12/16 08:42:51;;;;;;;2.63;1.80;;;;;;;;;;5115021;28;20405;-82
2021/12/16 08:45:20;;;;;;;3.80;2.07;;;;;;;;;;5114713;28;20460;-82
2021/12/16 08:47:46;;;;;;;4.00;2.00;;;;;;;;;;5115774;28;20674;-82
2021/12/16 08:50:13;;;;;;;4.40;1.83;;;;;;;;;;5114697;28;20403;-82
2021/12/16 08:52:39;;;;;;;4.40;2.30;;;;;;;;;;5097942;28;20424;-81
2021/12/16 08:55:06;;;;;;;5.23;2.13;;;;;;;;;;5096855;28;20450;-82
2021/12/16 08:57:32;;;;;;;3.50;2.00;;;;;;;;;;5097148;28;20425;-82
2021/12/16 08:59:58;;;;;;;4.53;1.80;;;;;;;;;;5115739;28;20745;-82
2021/12/16 09:02:24;;;;;;;3.50;1.70;;;;;;;;;;5115257;28;20458;-82
2021/12/16 09:04:51;;;;;;;5.23;1.50;;;;;;;;;;5096703;28;20542;-82
2021/12/16 09:07:17;;;;;;;2.00;1.17;;;;;;;;;;5115429;28;20408;-82
2021/12/16 09:09:45;;;;;;;3.00;1.50;;;;;;;;;;5096616;28;20441;-82
2021/12/16 09:15:02;;;;;;;7.73;1.90;;;;;;;;;;5114863;28;20820;-83
2021/12/16 09:17:28;;;;;;;2.43;1.60;;;;;;;;;;5097075;28;20397;-83
2021/12/16 09:19:55;;;;;;;3.87;1.80;;;;;;;;;;5096188;28;20420;-82
2021/12/16 09:22:22;;;;;;;3.73;1.93;;;;;;;;;;5114914;28;20416;-82
2021/12/16 09:24:50;;;;;;;2.77;1.70;;;;;;;;;;5096253;28;20471;-82
2021/12/16 09:27:17;;;;;;;3.20;1.73;;;;;;;;;;5096798;28;20405;-82
2021/12/16 09:29:44;;;;;;;5.80;2.17;;;;;;;;;;5116739;28;20749;-83
2021/12/16 09:32:10;;;;;;;1.90;1.20;;;;;;;;;;5099115;28;20409;-82
2021/12/16 09:34:37;;;;;;;3.70;1.80;;;;;;;;;;5112622;28;20955;-83
2021/12/16 09:37:03;;;;;;;3.60;1.73;;;;;;;;;;5098942;28;20413;-83
2021/12/16 09:39:29;;;;;;;4.70;2.17;;;;;;;;;;5079697;28;20564;-83
2021/12/16 09:41:57;;;;;;;9.00;1.73;;;;;;;;;;5079266;28;20704;-82
2021/12/16 09:44:24;;;;;;;3.17;1.87;;;;;;;;;;5079865;28;20472;-83
2021/12/16 09:46:51;;;;;;;3.53;2.10;;;;;;;;;;5097934;28;20402;-83
2021/12/16 09:49:19;;;;;;;21.83;2.17;;;;;;;;;;5078929;28;20441;-84
2021/12/16 09:51:46;;;;;;;12.33;1.90;;;;;;;;;;5095150;28;20525;-83
2021/12/16 09:54:14;;;;;;;10.00;1.87;;;;;;;;;;5098241;28;20513;-83
2021/12/16 09:56:41;;;;;;;12.40;2.17;;;;;;;;;;5079778;28;20426;-83
2021/12/16 09:59:10;;;;;;;2.80;1.63;;;;;;;;;;5079439;28;20406;-81
2021/12/16 10:01:36;;;;;;;3.83;1.80;;;;;;;;;;5078132;28;20414;-84
2021/12/16 10:04:04;;;;;;;3.83;1.97;;;;;;;;;;5079290;28;20469;-82
2021/12/16 10:06:34;;;;;;;2.70;1.60;;;;;;;;;;5097640;28;20417;-82
2021/12/16 10:09:01;;;;;;;3.07;1.50;;;;;;;;;;5080064;28;20406;-83
2021/12/16 10:11:28;;;;;;;3.40;1.77;;;;;;;;;;5079362;28;20417;-83
2021/12/16 10:19:07;;;;;;;2.97;1.80;;;;;;;;;;5097368;28;20758;-84
2021/12/16 10:21:33;;;;;;;4.73;1.83;;;;;;;;;;5078434;28;20402;-82
2021/12/16 10:23:59;;;;;;;3.70;2.00;;;;;;;;;;5077436;28;20473;-82
2021/12/16 10:26:27;;;;;;;2.80;1.80;;;;;;;;;;5078651;28;20466;-83
2021/12/16 10:28:56;;;;;;;2.30;1.60;;;;;;;;;;5097782;28;20402;-83
2021/12/16 10:31:34;;;;;;;3.07;1.73;;;;;;;;;;5078027;28;20525;-82
2021/12/16 10:34:00;;;;;;;2.67;1.50;;;;;;;;;;5096253;28;20962;-82
2021/12/16 10:36:40;;;;;;;2.47;1.40;;;;;;;;;;5076759;28;20650;-84
2021/12/16 10:39:14;;;;;;;2.30;1.57;;;;;;;;;;5077160;28;20508;-83
2021/12/16 10:41:43;;;;;;;2.90;1.60;;;;;;;;;;5096718;28;20788;-82
2021/12/16 10:44:29;;;;;;;2.40;1.40;;;;;;;;;;5076409;28;21016;-82
2021/12/16 10:47:01;;;;;;;3.47;2.40;;;;;;;;;;5076768;28;20417;-82
2021/12/16 10:49:39;;;;;;;4.80;1.40;;;;;;;;;;5076384;28;20493;-82
2021/12/16 10:52:09;;;;;;;3.37;1.60;;;;;;;;;;5076581;28;20406;-82
2021/12/16 10:54:38;;;;;;;2.87;1.63;;;;;;;;;;5094653;28;20852;-82
2021/12/16 10:57:04;;;;;;;2.60;1.53;;;;;;;;;;5094541;28;20471;-81
2021/12/16 10:59:44;;;;;;;2.53;1.53;;;;;;;;;;5095386;28;20410;-82
2021/12/16 11:02:23;;;;;;;2.90;1.70;;;;;;;;;;5095065;28;20398;-82
2021/12/16 11:04:51;;;;;;;6.83;2.03;;;;;;;;;;5077823;28;20477;-82
2021/12/16 11:07:37;;;;;;;3.70;1.47;;;;;;;;;;5095690;28;20496;-82
2021/12/16 11:10:06;;;;;;;3.33;1.80;;;;;;;;;;5096279;28;20518;-82
2021/12/16 11:12:38;;;;;;;5.60;1.97;;;;;;;;;;5097300;28;20405;-83
2021/12/16 11:15:07;;;;;;;4.57;1.63;;;;;;;;;;5078287;28;20441;-82
2021/12/16 11:17:35;;;;;;;3.13;1.80;;;;;;;;;;5098220;28;20410;-81
2021/12/16 11:20:08;;;;;;;3.57;1.90;;;;;;;;;;5098562;28;20512;-82
2021/12/16 11:22:35;;;;;;;2.53;1.40;;;;;;;;;;5083027;28;20441;-84
2021/12/16 11:25:11;;;;;;;2.70;1.40;;;;;;;;;;5077408;28;20788;-78
2021/12/16 11:27:37;;;;;;;2.80;1.40;;;;;;;;;;5092920;28;20405;-80
2021/12/16 11:30:20;;;;;;;2.20;1.30;;;;;;;;;;5092720;28;20947;-79
2021/12/16 11:32:47;;;;;;;1.40;0.80;;;;;;;;;;5074775;28;20410;-82
2021/12/16 11:35:25;;;;;;;1.70;0.97;;;;;;;;;;5075029;28;20794;-79
2021/12/16 11:37:52;;;;;;;3.23;1.33;;;;;;;;;;5075713;28;20421;-80
2021/12/16 11:40:19;;;;;;;2.40;1.30;;;;;;;;;;5095078;28;20462;-80
2021/12/16 11:42:57;;;;;;;2.03;1.17;;;;;;;;;;5077219;28;20917;-80
2021/12/16 11:45:36;;;;;;;1.60;0.90;;;;;;;;;;5096354;28;20468;-85
2021/12/16 11:48:03;;;;;;;1.50;0.90;;;;;;;;;;5077087;28;20405;-84
2021/12/16 11:50:33;;;;;;;2.93;1.00;;;;;;;;;;5095656;28;20402;-82
2021/12/16 11:52:59;;;;;;;4.37;0.90;;;;;;;;;;5093173;28;20405;-82
2021/12/16 11:55:25;;;;;;;1.70;0.90;;;;;;;;;;5079441;28;20517;-84
2021/12/16 11:58:00;;;;;;;1.37;0.87;;;;;;;;;;5083206;28;20778;-83
2021/12/16 12:00:29;;;;;;;1.47;0.80;;;;;;;;;;5080786;28;20415;-87
2021/12/16 12:03:07;;;;;;;1.90;1.00;;;;;;;;;;5075668;28;20470;-86
2021/12/16 12:05:44;;;;;;;2.73;1.50;;;;;;;;;;5076407;28;20441;-85
2021/12/16 12:08:20;;;;;;;2.07;1.20;;;;;;;;;;5077736;28;20405;-85
2021/12/16 12:10:53;;;;;;;1.33;0.83;;;;;;;;;;5093421;28;20393;-84
2021/12/16 12:13:27;;;;;;;2.37;1.10;;;;;;;;;;5073974;28;20430;-85
2021/12/16 12:16:08;;;;;;;2.13;1.10;;;;;;;;;;5073831;28;20446;-82
2021/12/16 12:18:36;;;;;;;1.83;0.90;;;;;;;;;;5094865;28;20760;-83
2021/12/16 12:21:20;;;;;;;2.00;1.13;;;;;;;;;;5078167;28;20792;-84
2021/12/16 12:23:47;;;;;;;1.50;0.83;;;;;;;;;;5088316;28;20995;-83
2021/12/16 12:26:16;;;;;;;1.27;0.97;;;;;;;;;;5091804;28;20921;-85
2021/12/16 12:28:46;;;;;;;1.63;1.00;;;;;;;;;;5099816;28;20436;-85
2021/12/16 12:31:12;;;;;;;2.77;1.30;;;;;;;;;;5106454;28;20410;-85
2021/12/16 12:33:38;;;;;;;1.43;1.00;;;;;;;;;;5076182;28;20455;-85
2021/12/16 12:36:07;;;;;;;1.53;0.90;;;;;;;;;;5086315;28;20830;-84
2021/12/16 12:38:34;;;;;;;2.97;0.93;;;;;;;;;;5109966;28;20429;-84
2021/12/16 12:41:00;;;;;;;1.73;1.20;;;;;;;;;;5112504;28;20435;-87
2021/12/16 12:43:26;;;;;;;4.20;1.13;;;;;;;;;;5093872;28;20432;-88
2021/12/16 12:45:52;;;;;;;5.33;1.13;;;;;;;;;;5093194;28;20448;-86
2021/12/16 12:48:19;;;;;;;1.90;1.00;;;;;;;;;;5094152;28;20423;-84
2021/12/16 12:50:47;;;;;;;2.80;1.07;;;;;;;;;;5112626;28;20424;-89
2021/12/16 12:53:18;;;;;;;1.90;1.00;;;;;;;;;;5092371;28;20489;-89
2021/12/16 12:55:44;;;;;;;1.93;1.17;;;;;;;;;;5097528;28;20457;-86
2021/12/16 12:58:16;;;;;;;1.43;0.97;;;;;;;;;;5096073;28;20464;-86
2021/12/16 13:00:50;;;;;;;1.50;1.07;;;;;;;;;;5095614;28;20519;-88
2021/12/16 13:03:18;;;;;;;1.53;0.90;;;;;;;;;;5095278;28;20479;-88
2021/12/16 13:05:52;;;;;;;2.70;1.00;;;;;;;;;;5115063;28;20864;-84
2021/12/16 13:08:25;;;;;;;1.60;0.90;;;;;;;;;;5099127;28;20428;-85
2021/12/16 13:10:51;;;;;;;2.00;1.13;;;;;;;;;;5112358;28;20776;-83
2021/12/16 13:16:11;;;;;;;1.80;1.07;;;;;;;;;;5114477;28;20546;-85
2021/12/16 13:24:31;;;;;;;4.27;1.57;;;;;;;;;;5114612;28;20491;-87
2021/12/16 13:27:12;;;;;;;1.73;0.97;;;;;;;;;;5116931;28;20421;-85
2021/12/16 13:29:53;;;;;;;1.30;0.90;;;;;;;;;;5101901;28;20409;-86
2021/12/16 13:32:27;;;;;;;2.23;1.20;;;;;;;;;;5116755;28;20409;-88
2021/12/16 13:35:12;;;;;;;1.70;1.10;;;;;;;;;;5098024;28;20447;-89
2021/12/16 13:37:40;;;;;;;3.20;1.40;;;;;;;;;;5114374;28;20465;-91
2021/12/16 13:40:17;;;;;;;2.20;1.10;;;;;;;;;;5083260;28;20466;-83
2021/12/16 13:42:54;;;;;;;2.80;1.47;;;;;;;;;;5099696;28;20417;-85
2021/12/16 13:45:28;;;;;;;3.47;1.03;;;;;;;;;;5103013;28;20464;-83
2021/12/16 13:48:34;;;;;;;1.97;1.00;;;;;;;;;;5106348;28;20489;-84
2021/12/16 14:05:18;;;;;;;1.10;0.60;;;;;;;;;;5074576;28;20469;-81
2021/12/16 14:07:56;;;;;;;1.30;0.70;;;;;;;;;;5120078;28;20421;-83
2021/12/16 14:10:34;;;;;;;1.30;0.70;;;;;;;;;;5097174;28;20913;-80
2021/12/16 14:23:01;;;;;;;2.37;0.80;;;;;;;;;;5102381;28;20410;-81
2021/12/16 14:24:19;;;;;;;2.73;0.80;;;;;;;;;;5097915;28;20467;-80
2021/12/16 14:27:05;;;;;;;1.90;0.90;;;;;;;;;;5117041;28;20440;-81
2021/12/16 14:33:24;;;;;;;5.23;0.83;;;;;;;;;;5117568;28;20885;-80
2021/12/16 14:35:28;;;;;;;1.20;0.87;;;;;;;;;;5118094;28;20465;-81
2021/12/16 14:41:08;;;;;;;1.00;0.60;;;;;;;;;;5112757;28;20450;-85
2021/12/16 14:43:39;;;;;;;1.10;0.70;;;;;;;;;;5116460;28;20455;-81
2021/12/16 14:46:08;;;;;;;2.33;0.63;;;;;;;;;;5116933;28;20918;-80
2021/12/16 14:48:38;;;;;;;3.10;0.70;;;;;;;;;;5117359;28;20404;-79
2021/12/16 14:51:09;;;;;;;8.37;1.60;;;;;;;;;;5116606;28;20898;-80
2021/12/16 14:53:43;;;;;;;1.17;0.60;;;;;;;;;;5116455;28;20495;-81
2021/12/16 14:56:11;;;;;;;1.13;0.77;;;;;;;;;;5117401;28;20412;-81
2021/12/16 14:58:38;;;;;;;1.13;0.70;;;;;;;;;;5116904;28;20508;-81
2021/12/16 15:01:04;;;;;;;1.17;0.83;;;;;;;;;;5115559;28;20932;-80
2021/12/16 15:03:35;;;;;;;3.93;0.90;;;;;;;;;;5115753;28;20486;-81
2021/12/16 15:06:03;;;;;;;1.30;0.80;;;;;;;;;;5100338;28;20480;-81
2021/12/16 15:08:40;;;;;;;1.60;0.90;;;;;;;;;;5097758;28;20409;-81
2021/12/16 15:11:08;;;;;;;1.97;0.90;;;;;;;;;;5095594;28;20441;-81
2021/12/16 15:13:44;;;;;;;2.30;0.80;;;;;;;;;;5096694;28;20499;-81
2021/12/16 15:16:39;;;;;;;1.27;0.80;;;;;;;;;;5115699;28;20480;-81
2021/12/16 15:36:33;;;;;;;1.10;0.70;;;;;;;;;;5112387;28;20439;-81
2021/12/16 15:39:24;;;;;;;1.30;0.83;;;;;;;;;;5112902;28;20411;-81
2021/12/16 15:44:48;;;;;;;1.40;0.80;;;;;;;;;;5115168;28;20549;-81
2021/12/16 15:47:14;;;;;;;1.40;0.80;;;;;;;;;;5116894;28;20429;-81
2021/12/16 15:49:40;;;;;;;3.33;1.00;;;;;;;;;;5117111;28;20942;-81
2021/12/16 15:52:06;;;;;;;1.20;0.90;;;;;;;;;;5116237;28;20415;-81
2021/12/16 15:54:46;;;;;;;1.40;0.80;;;;;;;;;;5116775;28;20460;-81
2021/12/16 15:57:12;;;;;;;2.63;1.00;;;;;;;;;;5115757;28;20479;-81
2021/12/16 15:59:40;;;;;;;2.00;0.90;;;;;;;;;;5118395;28;20980;-81
2021/12/16 16:02:06;;;;;;;1.23;0.83;;;;;;;;;;5100213;28;20414;-81
2021/12/16 16:04:34;;;;;;;1.97;0.90;;;;;;;;;;5118699;28;20467;-81
2021/12/16 16:07:03;;;;;;;1.20;0.80;;;;;;;;;;5120030;28;20907;-81
2021/12/16 16:09:34;;;;;;;1.40;0.90;;;;;;;;;;5099414;28;20440;-81
2021/12/16 16:12:00;;;;;;;2.33;1.10;;;;;;;;;;5117779;28;20397;-81
2021/12/16 16:14:29;;;;;;;1.37;0.90;;;;;;;;;;5118225;28;20891;-81
2021/12/16 16:16:57;;;;;;;1.90;1.00;;;;;;;;;;5100720;28;20821;-81
2021/12/16 16:19:34;;;;;;;2.90;1.20;;;;;;;;;;5099078;28;20528;-82
2021/12/16 16:22:03;;;;;;;2.60;1.37;;;;;;;;;;5117984;28;20400;-81
2021/12/16 16:24:34;;;;;;;3.30;1.17;;;;;;;;;;5118153;28;20463;-82
2021/12/16 16:27:02;;;;;;;2.17;1.20;;;;;;;;;;5117805;28;20413;-81
2021/12/16 16:29:29;;;;;;;2.23;0.90;;;;;;;;;;5118940;28;20408;-82
2021/12/16 16:31:56;;;;;;;1.33;0.97;;;;;;;;;;5101739;28;20421;-82
2021/12/16 16:34:27;;;;;;;2.20;1.30;;;;;;;;;;5117361;28;20450;-82
2021/12/16 16:36:56;;;;;;;2.13;1.43;;;;;;;;;;5118929;28;20459;-82
2021/12/16 16:39:23;;;;;;;1.87;1.10;;;;;;;;;;5106045;28;20431;-82
2021/12/16 16:41:51;;;;;;;1.20;0.80;;;;;;;;;;5124744;28;20512;-82
2021/12/16 16:44:19;;;;;;;2.80;1.10;;;;;;;;;;5125015;28;20483;-82
2021/12/16 16:46:55;;;;;;;2.43;1.50;;;;;;;;;;5123804;28;20466;-82
2021/12/16 16:49:28;;;;;;;2.07;1.10;;;;;;;;;;5124788;28;20401;-82
2021/12/16 16:51:55;;;;;;;4.93;1.03;;;;;;;;;;5118390;28;20425;-82
2021/12/16 16:54:27;;;;;;;11.07;1.20;;;;;;;;;;5121807;28;20428;-82
2021/12/16 16:56:53;;;;;;;1.43;0.90;;;;;;;;;;5100166;28;20416;-82
2021/12/16 16:59:39;;;;;;;1.47;1.07;;;;;;;;;;5097230;28;20416;-82
2021/12/16 17:02:23;;;;;;;4.73;1.33;;;;;;;;;;5115703;28;20419;-82
2021/12/16 17:04:53;;;;;;;1.30;0.90;;;;;;;;;;5116072;28;20456;-82
2021/12/16 17:07:19;;;;;;;1.77;1.10;;;;;;;;;;5116197;28;20915;-82
2021/12/16 17:09:45;;;;;;;3.37;1.37;;;;;;;;;;5097492;28;20431;-81
2021/12/16 17:12:14;;;;;;;1.53;0.90;;;;;;;;;;5100725;28;20409;-81
2021/12/16 17:14:48;;;;;;;2.43;1.30;;;;;;;;;;5122224;28;20544;-81
2021/12/16 17:17:24;;;;;;;1.77;1.10;;;;;;;;;;5104065;28;20416;-81
2021/12/16 17:20:03;;;;;;;2.67;1.30;;;;;;;;;;5118375;28;20432;-81
2021/12/16 17:22:35;;;;;;;3.33;1.43;;;;;;;;;;5099479;28;20444;-81
2021/12/16 17:25:01;;;;;;;1.73;0.90;;;;;;;;;;5121944;28;20513;-81
2021/12/16 17:27:34;;;;;;;2.70;1.17;;;;;;;;;;5122059;28;20934;-81
2021/12/16 17:30:01;;;;;;;2.10;1.33;;;;;;;;;;5120160;28;20412;-81
2021/12/16 17:32:28;;;;;;;1.70;1.10;;;;;;;;;;5101876;28;20492;-81
2021/12/16 17:34:57;;;;;;;1.87;1.37;;;;;;;;;;5119719;28;20542;-81
2021/12/16 17:37:25;;;;;;;1.80;1.30;;;;;;;;;;5118059;28;20411;-81
2021/12/16 17:39:56;;;;;;;2.10;1.27;;;;;;;;;;5097878;28;20624;-81
2021/12/16 17:42:38;;;;;;;4.57;1.63;;;;;;;;;;5115942;28;20976;-80
2021/12/16 17:45:26;;;;;;;1.73;1.10;;;;;;;;;;5115907;28;20831;-81
2021/12/16 17:47:53;;;;;;;2.23;1.30;;;;;;;;;;5114976;28;20440;-87
2021/12/16 17:50:26;;;;;;;2.87;1.40;;;;;;;;;;5101482;28;20405;-80
2021/12/16 17:52:55;;;;;;;2.33;1.40;;;;;;;;;;5117211;28;20405;-87
2021/12/16 17:55:23;;;;;;;2.70;1.30;;;;;;;;;;5096351;28;20440;-85
2021/12/16 17:57:50;;;;;;;2.40;1.30;;;;;;;;;;5097364;28;20495;-81
2021/12/16 18:00:16;;;;;;;2.70;1.47;;;;;;;;;;5116599;28;20829;-80
2021/12/16 18:02:47;;;;;;;2.27;1.50;;;;;;;;;;5099615;28;20419;-79
2021/12/16 18:05:13;;;;;;;1.70;1.20;;;;;;;;;;5118641;28;20459;-80
2021/12/16 18:07:40;;;;;;;2.30;1.37;;;;;;;;;;5100387;28;20405;-80
2021/12/16 18:10:07;;;;;;;4.37;1.93;;;;;;;;;;5117889;28;20397;-79
2021/12/16 18:12:33;;;;;;;5.63;1.80;;;;;;;;;;5117842;28;20405;-80
2021/12/16 18:15:03;;;;;;;5.63;2.20;;;;;;;;;;5119475;28;20444;-81
2021/12/16 18:17:35;;;;;;;3.53;2.00;;;;;;;;;;5118419;28;20405;-81